createdAt,value
2018-05-06T00:04:54.796Z,27.50
2018-05-06T00:10:22.925Z,24.97
2018-05-06T00:15:52.781Z,27.13
2018-05-06T00:21:21.684Z,28.67
2018-05-06T00:26:49.848Z,28.70
2018-05-06T00:32:18.770Z,28.80
2018-05-06T00:37:47.699Z,30.93
2018-05-06T00:43:15.860Z,28.50
2018-05-06T00:48:44.006Z,27.00
2018-05-06T00:54:29.908Z,35.13
2018-05-06T00:59:58.065Z,27.90
2018-05-06T01:05:26.232Z,32.57
2018-05-06T01:10:55.151Z,29.90
2018-05-06T01:16:23.287Z,28.80
2018-05-06T01:21:52.236Z,30.33
2018-05-06T01:27:20.391Z,36.80
2018-05-06T01:32:48.537Z,30.23
2018-05-06T01:38:16.688Z,33.63
2018-05-06T01:43:45.593Z,34.67
2018-05-06T01:49:13.730Z,32.80
2018-05-06T01:54:41.882Z,33.70
2018-05-06T02:00:10.031Z,37.50
2018-05-06T02:05:38.190Z,33.20
2018-05-06T02:11:08.097Z,39.20
2018-05-06T02:16:36.259Z,36.63
2018-05-06T02:22:04.489Z,34.10
2018-05-06T02:27:32.631Z,36.53
2018-05-06T02:33:00.847Z,39.97
2018-05-06T02:38:28.992Z,33.27
2018-05-06T02:43:57.144Z,33.20
2018-05-06T02:49:25.293Z,31.50
2018-05-06T02:54:54.219Z,38.47
2018-05-06T03:00:22.371Z,41.43
2018-05-06T03:05:50.523Z,37.63
2018-05-06T03:11:18.672Z,38.67
2018-05-06T03:16:46.825Z,37.80
2018-05-06T03:22:15.760Z,36.97
2018-05-06T03:27:44.685Z,39.47
2018-05-06T03:33:13.602Z,45.33
2018-05-06T03:38:46.140Z,51.33
2018-05-06T03:44:15.053Z,45.80
2018-05-06T03:49:44.518Z,38.07
2018-05-06T03:55:12.659Z,45.20
2018-05-06T04:00:43.510Z,38.53
2018-05-06T04:06:11.680Z,42.13
2018-05-06T04:11:40.802Z,40.17
2018-05-06T04:17:09.716Z,36.57
2018-05-06T04:22:38.877Z,35.67
2018-05-06T04:28:07.027Z,35.90
2018-05-06T04:33:35.183Z,34.63
2018-05-06T04:39:03.335Z,31.30
2018-05-06T04:44:32.243Z,32.87
2018-05-06T04:50:00.405Z,26.10
2018-05-06T04:55:29.311Z,28.63
2018-05-06T05:00:57.454Z,28.30
2018-05-06T05:06:26.370Z,24.47
2018-05-06T05:11:54.514Z,28.37
2018-05-06T05:17:23.419Z,23.47
2018-05-06T05:22:51.572Z,23.37
2018-05-06T05:28:20.509Z,26.50
2018-05-06T05:33:51.407Z,23.43
2018-05-06T05:39:19.554Z,25.83
2018-05-06T05:44:47.688Z,27.50
2018-05-06T05:50:15.852Z,25.20
2018-05-06T05:55:44.793Z,26.13
2018-05-06T06:01:13.724Z,26.43
2018-05-06T06:06:43.584Z,27.03
2018-05-06T06:12:12.501Z,24.10
2018-05-06T06:17:41.561Z,26.93
2018-05-06T06:23:10.463Z,28.10
2018-05-06T06:28:38.624Z,23.20
2018-05-06T06:34:07.531Z,23.70
2018-05-06T06:39:35.738Z,23.50
2018-05-06T06:45:03.949Z,26.17
2018-05-06T06:50:32.144Z,25.33
2018-05-06T06:56:00.374Z,20.50
2018-05-06T07:01:28.531Z,17.40
2018-05-06T07:06:56.738Z,20.00
2018-05-06T07:12:25.027Z,19.90
2018-05-06T07:17:54.142Z,25.33
2018-05-06T07:23:23.041Z,17.70
2018-05-06T07:28:51.202Z,13.97
2018-05-06T07:34:20.121Z,19.90
2018-05-06T07:39:48.295Z,15.90
2018-05-06T07:45:16.460Z,19.10
2018-05-06T07:50:44.606Z,16.47
2018-05-06T07:56:14.456Z,10.07
2018-05-06T08:01:43.369Z,10.57
2018-05-06T08:07:11.520Z,11.43
2018-05-06T08:12:40.431Z,10.50
2018-05-06T08:18:08.573Z,9.70
2018-05-06T08:23:37.491Z,13.30
2018-05-06T08:29:05.805Z,9.73
2018-05-06T08:34:34.005Z,9.30
2018-05-06T08:40:02.389Z,8.57
2018-05-06T08:45:31.636Z,11.00
2018-05-06T08:51:00.765Z,10.70
2018-05-06T08:56:29.719Z,10.60
2018-05-06T09:01:58.181Z,11.30
2018-05-06T09:07:28.331Z,9.53
2018-05-06T09:12:56.513Z,10.90
2018-05-06T09:18:24.723Z,9.73
2018-05-06T09:23:53.918Z,18.50
2018-05-06T09:29:22.087Z,11.30
2018-05-06T09:34:50.239Z,10.33
2018-05-06T09:40:18.472Z,9.77
2018-05-06T09:45:47.615Z,10.57
2018-05-06T09:51:15.922Z,9.90
2018-05-06T09:56:44.167Z,10.83
2018-05-06T10:02:12.326Z,11.20
2018-05-06T10:07:40.515Z,15.23
2018-05-06T10:13:08.860Z,8.43
2018-05-06T10:18:38.117Z,9.70
2018-05-06T10:24:06.324Z,10.17
2018-05-06T10:29:35.317Z,7.40
2018-05-06T10:35:04.623Z,11.20
2018-05-06T10:40:32.860Z,9.67
2018-05-06T10:46:02.804Z,10.17
2018-05-06T10:51:31.743Z,9.70
2018-05-06T10:56:59.906Z,5.00
2018-05-06T11:02:28.787Z,10.33
2018-05-06T11:07:57.876Z,7.00
2018-05-06T11:13:26.832Z,6.07
2018-05-06T11:18:54.992Z,42.67
2018-05-06T11:24:23.165Z,10.60
2018-05-06T11:29:51.428Z,10.07
2018-05-06T11:35:19.594Z,6.60
2018-05-06T11:40:48.500Z,4.63
2018-05-06T11:46:18.462Z,7.60
2018-05-06T11:51:50.954Z,3.53
2018-05-06T11:57:23.228Z,4.77
2018-05-06T12:02:52.171Z,3.50
2018-05-06T12:08:21.320Z,3.70
2018-05-06T12:13:49.483Z,7.20
2018-05-06T12:19:17.650Z,7.37
2018-05-06T12:24:47.458Z,9.97
2018-05-06T12:30:16.576Z,6.67
2018-05-06T12:35:44.729Z,5.47
2018-05-06T12:41:12.912Z,6.57
2018-05-06T12:46:41.173Z,7.40
2018-05-06T12:52:10.277Z,5.30
2018-05-06T12:57:38.664Z,8.40
2018-05-06T13:03:06.854Z,5.07
2018-05-06T13:08:35.040Z,8.70
2018-05-06T13:14:03.221Z,5.47
2018-05-06T13:19:31.357Z,5.63
2018-05-06T13:25:00.385Z,13.73
2018-05-06T13:30:28.529Z,6.63
2018-05-06T13:35:56.675Z,6.40
2018-05-06T13:41:24.829Z,13.33
2018-05-06T13:46:52.987Z,6.60
2018-05-06T13:52:21.917Z,11.13
2018-05-06T13:57:50.848Z,8.13
2018-05-06T14:03:19.801Z,11.53
2018-05-06T14:08:48.744Z,7.33
2018-05-06T14:14:16.893Z,3.50
2018-05-06T14:19:45.070Z,7.17
2018-05-06T14:25:13.998Z,6.70
2018-05-06T14:30:42.924Z,5.73
2018-05-06T14:36:11.068Z,7.40
2018-05-06T14:41:39.971Z,5.77
2018-05-06T14:47:25.987Z,4.87
2018-05-06T14:52:54.134Z,4.57
2018-05-06T14:58:22.270Z,8.17
2018-05-06T15:03:51.205Z,3.90
2018-05-06T15:09:19.349Z,6.30
2018-05-06T15:14:47.482Z,7.63
2018-05-06T15:20:15.644Z,10.00
2018-05-06T15:25:43.798Z,5.70
2018-05-06T15:31:12.766Z,8.80
2018-05-06T15:36:41.864Z,6.53
2018-05-06T15:42:11.000Z,6.47
2018-05-06T15:47:41.073Z,8.70
2018-05-06T15:53:09.243Z,12.23
2018-05-06T15:58:37.384Z,5.23
2018-05-06T16:04:16.008Z,3.97
2018-05-06T16:09:44.164Z,8.93
2018-05-06T16:15:12.404Z,5.20
2018-05-06T16:20:40.538Z,4.97
2018-05-06T16:26:08.698Z,7.83
2018-05-06T16:31:36.845Z,3.23
2018-05-06T16:37:05.045Z,4.83
2018-05-06T16:42:33.219Z,7.57
2018-05-06T16:48:02.128Z,3.30
2018-05-06T16:53:30.273Z,5.13
2018-05-06T16:58:59.212Z,5.40
2018-05-06T17:04:28.110Z,2.90
2018-05-06T17:09:56.252Z,5.30
2018-05-06T17:15:24.414Z,6.10
2018-05-06T17:20:53.528Z,4.20
2018-05-06T17:26:22.474Z,6.73
2018-05-06T17:31:52.330Z,2.90
2018-05-06T17:37:21.241Z,7.20
2018-05-06T17:42:49.444Z,5.70
2018-05-06T17:48:17.511Z,3.80
2018-05-06T17:53:46.454Z,8.50
2018-05-06T17:59:14.711Z,4.83
2018-05-06T18:04:42.854Z,3.50
2018-05-06T18:10:11.018Z,4.37
2018-05-06T18:15:39.975Z,4.20
2018-05-06T18:21:08.125Z,3.70
2018-05-06T18:26:36.334Z,3.70
2018-05-06T18:32:04.509Z,6.70
2018-05-06T18:37:32.794Z,6.57
2018-05-06T18:43:00.972Z,7.43
2018-05-06T18:48:29.118Z,5.57
2018-05-06T18:53:57.346Z,4.20
2018-05-06T18:59:25.561Z,6.47
2018-05-06T19:04:54.742Z,2.50
2018-05-06T19:10:23.898Z,2.83
2018-05-06T19:15:52.071Z,4.40
2018-05-06T19:21:20.237Z,3.80
2018-05-06T19:26:49.140Z,3.37
2018-05-06T19:32:17.398Z,12.90
2018-05-06T19:37:46.362Z,5.30
2018-05-06T19:43:14.443Z,8.13
2018-05-06T19:48:44.314Z,13.07
2018-05-06T19:54:12.448Z,9.73
2018-05-06T19:59:40.579Z,4.57
2018-05-06T20:05:09.695Z,8.37
2018-05-06T20:10:38.614Z,6.63
2018-05-06T20:16:06.841Z,5.13
2018-05-06T20:21:35.015Z,3.97
2018-05-06T20:27:03.159Z,6.07
2018-05-06T20:32:31.353Z,3.70
2018-05-06T20:37:59.681Z,5.50
2018-05-06T20:43:27.848Z,5.27
2018-05-06T20:48:55.982Z,3.70
2018-05-06T20:54:24.945Z,6.43
2018-05-06T20:59:53.208Z,3.40
2018-05-06T21:05:21.453Z,3.03
2018-05-06T21:10:49.520Z,3.57
2018-05-06T21:16:18.453Z,5.07
2018-05-06T21:21:47.362Z,2.40
2018-05-06T21:27:16.362Z,25.20
2018-05-06T21:32:44.496Z,5.07
2018-05-06T21:38:12.653Z,3.93
2018-05-06T21:43:40.790Z,6.57
2018-05-06T21:49:09.129Z,2.73
2018-05-06T21:54:37.403Z,3.30
2018-05-06T22:00:05.484Z,5.77
2018-05-06T22:05:33.675Z,9.50
2018-05-06T22:11:01.876Z,5.53
2018-05-06T22:16:30.023Z,6.80
2018-05-06T22:21:58.338Z,3.47
2018-05-06T22:27:26.515Z,3.50
2018-05-06T22:32:55.482Z,2.80
2018-05-06T22:38:23.640Z,8.67
2018-05-06T22:43:52.706Z,5.97
2018-05-06T22:49:25.332Z,4.13
2018-05-06T22:54:54.232Z,5.57
2018-05-06T23:00:22.393Z,5.83
2018-05-06T23:05:51.318Z,4.53
2018-05-06T23:11:19.475Z,6.43
2018-05-06T23:16:47.625Z,3.87
2018-05-06T23:22:15.805Z,3.87
2018-05-06T23:27:43.905Z,3.73
2018-05-06T23:33:12.816Z,4.03
2018-05-06T23:38:40.958Z,6.40
2018-05-06T23:44:09.107Z,10.87
2018-05-06T23:49:37.285Z,4.10
2018-05-06T23:55:05.476Z,3.60
